createdAt,value
2023-03-12T00:01:20.136Z,2.47
2023-03-12T00:03:47.902Z,2.47
2023-03-12T00:06:15.120Z,2.38
2023-03-12T00:08:42.163Z,2.15
2023-03-12T00:11:12.259Z,2.10
2023-03-12T00:13:39.746Z,1.85
2023-03-12T00:16:16.013Z,2.13
2023-03-12T00:18:43.919Z,1.90
2023-03-12T00:21:11.061Z,1.65
2023-03-12T00:23:37.561Z,2.08
2023-03-12T00:26:06.963Z,2.38
2023-03-12T00:28:35.010Z,3.05
2023-03-12T00:31:02.538Z,4.78
2023-03-12T00:33:29.477Z,3.67
2023-03-12T00:36:01.693Z,3.47
2023-03-12T00:38:28.193Z,3.70
2023-03-12T00:40:54.731Z,2.65
2023-03-12T00:43:21.382Z,3.17
2023-03-12T00:45:47.926Z,2.40
2023-03-12T00:48:14.570Z,2.92
2023-03-12T00:50:41.103Z,3.05
2023-03-12T00:53:07.969Z,2.38
2023-03-12T00:55:34.517Z,2.75
2023-03-12T00:58:00.984Z,2.90
2023-03-12T01:00:27.878Z,2.42
2023-03-12T01:02:55.377Z,2.25
2023-03-12T01:05:21.892Z,2.40
2023-03-12T01:07:48.332Z,3.10
2023-03-12T01:10:17.454Z,2.45
2023-03-12T01:12:44.001Z,2.08
2023-03-12T01:15:16.673Z,2.25
2023-03-12T01:17:43.267Z,4.95
2023-03-12T01:20:10.881Z,6.70
2023-03-12T01:22:37.553Z,3.75
2023-03-12T01:25:04.178Z,2.85
2023-03-12T01:27:30.672Z,1.95
2023-03-12T01:29:57.093Z,2.72
2023-03-12T01:32:23.806Z,2.35
2023-03-12T01:34:50.214Z,2.53
2023-03-12T01:37:16.593Z,2.63
2023-03-12T01:39:43.006Z,2.10
2023-03-12T01:42:09.459Z,3.35
2023-03-12T01:45:01.672Z,2.80
2023-03-12T01:47:32.013Z,2.60
2023-03-12T01:50:00.598Z,3.08
2023-03-12T01:52:35.868Z,3.03
2023-03-12T01:55:09.478Z,2.47
2023-03-12T01:58:02.369Z,2.75
2023-03-12T02:00:28.921Z,3.25
2023-03-12T02:03:00.471Z,3.35
2023-03-12T02:07:57.550Z,3.30
2023-03-12T02:10:26.098Z,3.33
2023-03-12T02:12:53.204Z,2.67
2023-03-12T02:15:19.881Z,2.80
2023-03-12T02:17:46.363Z,2.78
2023-03-12T02:20:39.443Z,3.28
2023-03-12T02:23:31.961Z,3.40
2023-03-12T02:26:01.355Z,3.17
2023-03-12T02:28:29.852Z,2.60
2023-03-12T02:31:03.388Z,2.75
2023-03-12T02:33:29.892Z,2.90
2023-03-12T02:35:56.704Z,2.92
2023-03-12T02:38:37.505Z,3.13
2023-03-12T02:41:11.614Z,2.75
2023-03-12T02:43:39.084Z,3.28
2023-03-12T02:46:08.118Z,2.53
2023-03-12T02:48:34.729Z,2.45
2023-03-12T02:51:03.315Z,2.60
2023-03-12T02:53:30.095Z,2.67
2023-03-12T02:55:56.714Z,3.45
2023-03-12T02:58:23.102Z,2.45
2023-03-12T03:00:49.694Z,2.47
2023-03-12T03:03:16.245Z,2.28
2023-03-12T03:05:42.682Z,3.17
2023-03-12T03:08:09.355Z,3.15
2023-03-12T03:10:35.827Z,2.60
2023-03-12T03:13:02.300Z,2.70
2023-03-12T03:15:29.790Z,3.15
2023-03-12T03:17:56.412Z,2.78
2023-03-12T03:20:24.648Z,2.40
2023-03-12T03:22:51.038Z,2.60
2023-03-12T03:25:18.178Z,2.92
2023-03-12T03:27:44.679Z,2.50
2023-03-12T03:30:11.991Z,2.97
2023-03-12T03:32:38.682Z,2.97
2023-03-12T03:35:05.740Z,3.17
2023-03-12T03:37:32.128Z,3.13
2023-03-12T03:39:58.832Z,2.58
2023-03-12T03:42:25.727Z,2.58
2023-03-12T03:44:52.093Z,2.83
2023-03-12T03:47:18.577Z,3.28
2023-03-12T03:49:45.134Z,3.50
2023-03-12T03:52:11.515Z,2.75
2023-03-12T03:54:37.877Z,2.95
2023-03-12T03:57:04.582Z,2.70
2023-03-12T03:59:31.106Z,2.85
2023-03-12T04:01:57.504Z,3.40
2023-03-12T04:04:23.941Z,2.78
2023-03-12T04:06:50.414Z,3.05
2023-03-12T04:09:16.892Z,2.80
2023-03-12T04:11:43.539Z,3.03
2023-03-12T04:14:10.143Z,3.38
2023-03-12T04:16:36.526Z,3.38
2023-03-12T04:19:03.047Z,2.85
2023-03-12T04:21:29.562Z,3.60
2023-03-12T04:23:56.016Z,3.42
2023-03-12T04:26:22.535Z,3.17
2023-03-12T04:28:49.077Z,2.20
2023-03-12T04:31:15.663Z,3.08
2023-03-12T04:33:42.181Z,3.10
2023-03-12T04:36:08.942Z,2.90
2023-03-12T04:38:35.407Z,2.78
2023-03-12T04:41:11.287Z,2.85
2023-03-12T04:43:37.991Z,3.03
2023-03-12T04:46:06.070Z,3.35
2023-03-12T04:48:33.098Z,3.70
2023-03-12T04:50:59.607Z,3.25
2023-03-12T04:53:26.130Z,2.90
2023-03-12T04:55:52.647Z,2.92
2023-03-12T04:58:20.453Z,3.13
2023-03-12T05:00:48.285Z,2.55
2023-03-12T05:03:14.835Z,2.67
2023-03-12T05:05:41.359Z,3.13
2023-03-12T05:08:07.898Z,2.30
2023-03-12T05:10:34.390Z,3.25
2023-03-12T05:13:00.809Z,2.83
2023-03-12T05:15:28.404Z,3.63
2023-03-12T05:17:55.025Z,3.50
2023-03-12T05:20:21.575Z,3.22
2023-03-12T05:22:48.031Z,3.35
2023-03-12T05:25:14.540Z,2.83
2023-03-12T05:27:40.963Z,3.60
2023-03-12T05:30:08.093Z,2.85
2023-03-12T05:32:34.493Z,3.45
2023-03-12T05:35:00.878Z,4.05
2023-03-12T05:37:27.430Z,3.15
2023-03-12T05:39:54.625Z,3.42
2023-03-12T05:42:21.202Z,3.53
2023-03-12T05:44:47.769Z,3.35
2023-03-12T05:47:14.306Z,3.70
2023-03-12T05:49:40.898Z,3.20
2023-03-12T05:52:07.554Z,3.28
2023-03-12T05:54:34.135Z,3.75
2023-03-12T05:57:00.615Z,3.60
2023-03-12T05:59:27.111Z,3.50
2023-03-12T06:01:53.730Z,3.65
2023-03-12T06:04:20.387Z,2.85
2023-03-12T06:06:47.343Z,3.38
2023-03-12T06:09:13.903Z,3.50
2023-03-12T06:11:40.425Z,3.30
2023-03-12T06:14:06.971Z,3.60
2023-03-12T06:16:33.571Z,4.20
2023-03-12T06:19:02.670Z,3.22
2023-03-12T06:21:32.654Z,3.50
2023-03-12T06:24:00.007Z,3.35
2023-03-12T06:26:27.476Z,3.22
2023-03-12T06:28:54.832Z,3.58
2023-03-12T06:31:21.822Z,4.05
2023-03-12T06:33:48.953Z,2.97
2023-03-12T06:36:15.566Z,3.35
2023-03-12T06:38:42.124Z,2.92
2023-03-12T06:41:11.613Z,3.50
2023-03-12T06:43:39.202Z,3.55
2023-03-12T06:46:08.554Z,3.13
2023-03-12T06:48:41.338Z,3.92
2023-03-12T06:51:10.605Z,3.60
2023-03-12T06:53:37.285Z,3.85
2023-03-12T06:56:04.205Z,3.55
2023-03-12T06:58:31.250Z,3.20
2023-03-12T07:00:57.926Z,3.10
2023-03-12T07:03:24.517Z,3.72
2023-03-12T07:05:51.991Z,3.00
2023-03-12T07:08:19.667Z,3.42
2023-03-12T07:10:46.193Z,2.45
2023-03-12T07:13:13.674Z,3.50
2023-03-12T07:15:40.706Z,3.05
2023-03-12T07:18:11.470Z,3.15
2023-03-12T07:20:39.972Z,3.33
2023-03-12T07:23:06.965Z,2.75
2023-03-12T07:25:40.079Z,3.08
2023-03-12T07:28:07.867Z,2.53
2023-03-12T07:30:34.609Z,3.30
2023-03-12T07:33:02.819Z,3.75
2023-03-12T07:35:30.143Z,2.83
2023-03-12T07:37:57.123Z,2.90
2023-03-12T07:40:23.668Z,3.30
2023-03-12T07:42:51.114Z,3.20
2023-03-12T07:45:18.404Z,3.47
2023-03-12T07:47:45.118Z,2.42
2023-03-12T07:50:12.566Z,3.63
2023-03-12T07:52:39.230Z,3.83
2023-03-12T07:55:07.624Z,4.00
2023-03-12T07:57:34.090Z,3.08
2023-03-12T08:00:00.700Z,3.45
2023-03-12T08:02:28.302Z,3.25
2023-03-12T08:04:54.928Z,3.60
2023-03-12T08:07:21.684Z,3.33
2023-03-12T08:09:49.437Z,3.75
2023-03-12T08:12:16.054Z,3.85
2023-03-12T08:14:42.822Z,3.83
2023-03-12T08:17:10.446Z,4.00
2023-03-12T08:19:37.405Z,3.33
2023-03-12T08:22:03.966Z,3.45
2023-03-12T08:24:30.395Z,3.33
2023-03-12T08:26:57.807Z,3.22
2023-03-12T08:29:25.601Z,3.15
2023-03-12T08:32:04.608Z,3.30
2023-03-12T08:34:35.479Z,3.38
2023-03-12T08:37:02.918Z,2.97
2023-03-12T08:39:29.552Z,3.13
2023-03-12T08:41:56.949Z,2.70
2023-03-12T08:44:24.747Z,3.33
2023-03-12T08:46:52.729Z,2.85
2023-03-12T08:49:21.377Z,3.10
2023-03-12T08:51:48.544Z,3.38
2023-03-12T08:54:16.020Z,3.08
2023-03-12T08:56:44.394Z,3.20
2023-03-12T08:59:11.583Z,3.63
2023-03-12T09:01:38.390Z,2.67
2023-03-12T09:04:05.682Z,3.10
2023-03-12T09:06:35.355Z,3.38
2023-03-12T09:09:05.085Z,3.00
2023-03-12T09:11:39.515Z,4.28
2023-03-12T09:14:49.831Z,3.10
2023-03-12T09:16:52.470Z,5.32
2023-03-12T09:19:19.012Z,4.30
2023-03-12T09:21:45.450Z,3.92
2023-03-12T09:24:12.216Z,2.72
2023-03-12T09:26:38.624Z,2.67
2023-03-12T09:29:05.550Z,2.60
2023-03-12T09:31:32.113Z,2.40
2023-03-12T09:33:58.637Z,2.90
2023-03-12T09:36:26.391Z,2.70
2023-03-12T09:38:52.837Z,2.92
2023-03-12T09:41:33.721Z,3.50
2023-03-12T09:44:10.181Z,3.50
2023-03-12T09:46:43.156Z,3.38
2023-03-12T09:49:40.693Z,2.92
2023-03-12T09:52:31.931Z,2.67
2023-03-12T09:55:17.176Z,3.30
2023-03-12T09:57:44.772Z,2.78
2023-03-12T10:00:14.389Z,2.17
2023-03-12T10:03:05.837Z,1.67
2023-03-12T10:05:34.979Z,2.20
2023-03-12T10:08:26.243Z,1.92
2023-03-12T10:11:02.856Z,1.63
2023-03-12T10:14:10.736Z,1.45
2023-03-12T10:16:54.608Z,1.60
2023-03-12T10:19:36.021Z,2.00
2023-03-12T10:22:15.694Z,2.13
2023-03-12T10:24:56.594Z,2.55
2023-03-12T10:27:27.990Z,2.42
2023-03-12T10:29:55.282Z,1.90
2023-03-12T10:32:45.854Z,2.00
2023-03-12T10:35:24.192Z,2.58
2023-03-12T10:38:04.499Z,2.53
2023-03-12T10:40:34.553Z,2.35
2023-03-12T10:43:02.523Z,2.60
2023-03-12T10:46:02.205Z,2.42
2023-03-12T10:48:28.667Z,2.60
2023-03-12T10:51:03.393Z,2.88
2023-03-12T10:53:33.226Z,2.58
2023-03-12T10:56:01.402Z,2.60
2023-03-12T10:58:35.024Z,2.95
2023-03-12T11:01:04.386Z,1.90
2023-03-12T11:03:31.775Z,2.10
2023-03-12T11:06:05.984Z,3.13
2023-03-12T11:08:35.720Z,2.65
2023-03-12T11:11:03.993Z,2.50
2023-03-12T11:13:30.341Z,3.03
2023-03-12T11:15:59.972Z,3.15
2023-03-12T11:18:30.307Z,3.22
2023-03-12T11:21:10.622Z,3.15
2023-03-12T11:23:43.877Z,4.35
2023-03-12T11:26:16.187Z,3.97
2023-03-12T11:28:56.252Z,4.00
2023-03-12T11:31:27.608Z,3.58
2023-03-12T11:34:03.606Z,4.00
2023-03-12T11:36:51.330Z,4.28
2023-03-12T11:39:43.884Z,4.70
2023-03-12T11:42:44.855Z,6.50
2023-03-12T11:45:26.354Z,4.25
2023-03-12T11:48:01.996Z,5.22
2023-03-12T11:50:45.938Z,5.40
2023-03-12T11:53:44.722Z,5.18
2023-03-12T11:56:37.752Z,4.75
2023-03-12T11:59:23.014Z,5.30
2023-03-12T12:02:04.485Z,4.72
2023-03-12T12:04:48.721Z,4.88
2023-03-12T12:07:39.981Z,7.30
2023-03-12T12:10:09.363Z,4.75
2023-03-12T12:13:22.247Z,5.35
2023-03-12T12:16:22.233Z,6.35
2023-03-12T12:19:18.242Z,4.85
2023-03-12T12:21:54.762Z,4.10
2023-03-12T12:24:30.986Z,5.70
2023-03-12T12:27:38.626Z,5.20
2023-03-12T12:30:47.055Z,4.93
2023-03-12T12:33:56.212Z,5.05
2023-03-12T12:36:27.345Z,6.43
2023-03-12T12:39:01.281Z,5.28
2023-03-12T12:41:34.662Z,5.45
2023-03-12T12:44:30.060Z,4.20
2023-03-12T12:47:03.839Z,4.72
2023-03-12T12:49:46.971Z,4.80
2023-03-12T12:52:20.062Z,5.30
2023-03-12T12:54:55.209Z,4.60
2023-03-12T12:57:53.978Z,5.18
2023-03-12T13:00:23.488Z,4.63
2023-03-12T13:02:51.264Z,5.40
2023-03-12T13:05:26.733Z,5.00
2023-03-12T13:07:53.450Z,4.93
2023-03-12T13:10:57.454Z,4.78
2023-03-12T13:13:29.298Z,4.88
2023-03-12T13:16:19.264Z,4.82
2023-03-12T13:19:07.425Z,6.07
2023-03-12T13:21:40.619Z,5.45
2023-03-12T13:24:32.022Z,4.57
2023-03-12T13:27:20.379Z,5.82
2023-03-12T13:29:47.012Z,5.00
2023-03-12T13:32:35.126Z,5.38
2023-03-12T13:35:32.492Z,5.40
2023-03-12T13:38:04.970Z,6.07
2023-03-12T13:40:32.701Z,5.47
2023-03-12T13:43:08.161Z,5.95
2023-03-12T13:45:55.574Z,5.30
2023-03-12T13:48:24.931Z,5.57
2023-03-12T13:51:18.964Z,5.30
2023-03-12T13:53:52.789Z,6.22
2023-03-12T13:56:26.292Z,5.20
2023-03-12T13:59:06.838Z,5.43
2023-03-12T14:01:40.939Z,5.35
2023-03-12T14:04:20.365Z,6.38
2023-03-12T14:07:06.289Z,5.50
2023-03-12T14:09:45.866Z,6.40
2023-03-12T14:12:43.411Z,6.47
2023-03-12T14:15:27.357Z,5.88
2023-03-12T14:18:12.362Z,6.22
2023-03-12T14:20:39.921Z,6.10
2023-03-12T14:23:13.068Z,5.72
2023-03-12T14:25:43.607Z,6.03
2023-03-12T14:28:29.067Z,6.90
2023-03-12T14:31:08.419Z,6.53
2023-03-12T14:33:58.229Z,5.88
2023-03-12T14:36:45.073Z,7.35
2023-03-12T14:39:55.731Z,8.18
2023-03-12T14:42:34.428Z,7.32
2023-03-12T14:45:18.010Z,6.55
2023-03-12T14:47:52.572Z,7.28
2023-03-12T14:50:40.409Z,7.43
2023-03-12T14:53:29.329Z,6.93
2023-03-12T14:56:05.268Z,6.95
2023-03-12T14:58:34.264Z,6.78
2023-03-12T15:01:12.348Z,7.05
2023-03-12T15:03:48.144Z,7.10
2023-03-12T15:06:38.434Z,6.60
2023-03-12T15:09:07.070Z,6.45
2023-03-12T15:11:36.720Z,6.88
2023-03-12T15:14:11.852Z,7.45
2023-03-12T15:16:38.587Z,6.28
2023-03-12T15:19:05.263Z,7.35
2023-03-12T15:21:36.195Z,6.93
2023-03-12T15:24:03.572Z,7.75
2023-03-12T15:26:34.457Z,8.55
2023-03-12T15:29:26.724Z,7.03
2023-03-12T15:32:14.191Z,7.93
2023-03-12T15:34:41.898Z,7.00
2023-03-12T15:37:38.649Z,7.75
2023-03-12T15:40:19.727Z,7.90
2023-03-12T15:42:47.800Z,9.50
2023-03-12T15:45:24.453Z,8.25
2023-03-12T15:47:53.563Z,8.32
2023-03-12T15:50:25.755Z,8.05
2023-03-12T15:53:18.542Z,7.93
2023-03-12T15:56:07.571Z,7.63
2023-03-12T15:58:35.058Z,7.75
2023-03-12T16:01:16.575Z,7.95
2023-03-12T16:03:45.560Z,8.80
2023-03-12T16:06:20.809Z,12.73
2023-03-12T16:08:53.082Z,9.60
2023-03-12T16:11:22.866Z,8.77
2023-03-12T16:13:52.036Z,9.52
2023-03-12T16:16:18.954Z,8.50
2023-03-12T16:18:45.436Z,8.63
2023-03-12T16:21:12.806Z,8.50
2023-03-12T16:23:39.783Z,9.20
2023-03-12T16:26:06.978Z,8.95
2023-03-12T16:28:36.233Z,9.55
2023-03-12T16:31:03.310Z,8.18
2023-03-12T16:33:29.834Z,9.23
2023-03-12T16:35:57.065Z,8.48
2023-03-12T16:38:23.571Z,9.57
2023-03-12T16:40:51.920Z,7.90
2023-03-12T16:43:24.565Z,8.40
2023-03-12T16:45:52.803Z,9.32
2023-03-12T16:48:23.037Z,8.80
2023-03-12T16:50:55.932Z,8.98
2023-03-12T16:53:23.495Z,9.30
2023-03-12T16:55:53.604Z,9.68
2023-03-12T16:58:21.347Z,8.80
2023-03-12T17:00:49.138Z,9.63
2023-03-12T17:03:36.446Z,9.82
2023-03-12T17:06:05.520Z,11.55
2023-03-12T17:08:32.154Z,10.15
2023-03-12T17:10:59.936Z,9.20
2023-03-12T17:13:28.569Z,8.95
2023-03-12T17:15:55.698Z,9.35
2023-03-12T17:18:22.493Z,9.63
2023-03-12T17:20:51.818Z,9.45
2023-03-12T17:23:18.890Z,9.73
2023-03-12T17:25:46.008Z,9.82
2023-03-12T17:28:13.689Z,9.10
2023-03-12T17:30:40.407Z,10.40
2023-03-12T17:33:10.682Z,10.25
2023-03-12T17:35:37.903Z,10.85
2023-03-12T17:38:06.424Z,10.10
2023-03-12T17:40:32.982Z,9.55
2023-03-12T17:42:59.515Z,10.77
2023-03-12T17:45:26.802Z,10.57
2023-03-12T17:47:53.313Z,9.85
2023-03-12T17:50:19.972Z,11.63
2023-03-12T17:52:46.479Z,10.32
2023-03-12T17:55:15.074Z,10.25
2023-03-12T17:57:42.581Z,11.82
2023-03-12T18:00:12.777Z,10.88
2023-03-12T18:02:41.449Z,11.27
2023-03-12T18:05:10.095Z,10.73
2023-03-12T18:07:37.080Z,11.18
2023-03-12T18:10:06.457Z,11.25
2023-03-12T18:12:33.764Z,10.88
2023-03-12T18:15:00.659Z,11.27
2023-03-12T18:17:27.124Z,10.65
2023-03-12T18:19:53.579Z,10.98
2023-03-12T18:22:20.098Z,11.32
2023-03-12T18:24:47.776Z,11.32
2023-03-12T18:27:14.319Z,11.50
2023-03-12T18:29:41.238Z,10.05
2023-03-12T18:32:08.939Z,12.27
2023-03-12T18:34:35.811Z,12.48
2023-03-12T18:37:02.338Z,12.07
2023-03-12T18:39:28.818Z,12.23
2023-03-12T18:41:55.845Z,12.13
2023-03-12T18:44:22.487Z,13.73
2023-03-12T18:46:50.864Z,11.88
2023-03-12T18:49:17.814Z,11.65
2023-03-12T18:51:44.315Z,12.23
2023-03-12T18:54:12.527Z,11.82
2023-03-12T18:56:40.937Z,13.18
2023-03-12T18:59:09.806Z,11.55
2023-03-12T19:01:36.495Z,12.50
2023-03-12T19:04:03.058Z,13.10
2023-03-12T19:06:33.104Z,12.43
2023-03-12T19:09:09.603Z,12.07
2023-03-12T19:11:36.172Z,12.20
2023-03-12T19:14:03.310Z,12.63
2023-03-12T19:16:31.033Z,13.40
2023-03-12T19:18:57.822Z,13.35
2023-03-12T19:21:24.229Z,12.63
2023-03-12T19:23:50.767Z,11.63
2023-03-12T19:26:17.112Z,12.75
2023-03-12T19:28:43.850Z,11.80
2023-03-12T19:31:13.495Z,12.65
2023-03-12T19:33:41.850Z,13.30
2023-03-12T19:36:09.122Z,14.68
2023-03-12T19:38:35.676Z,12.32
2023-03-12T19:41:02.260Z,13.32
2023-03-12T19:43:28.705Z,12.68
2023-03-12T19:45:55.878Z,12.70
2023-03-12T19:48:25.371Z,13.38
2023-03-12T19:50:53.775Z,15.95
2023-03-12T19:53:20.777Z,14.13
2023-03-12T19:55:48.877Z,13.65
2023-03-12T19:58:16.246Z,14.40
2023-03-12T20:00:43.556Z,14.45
2023-03-12T20:03:10.452Z,14.07
2023-03-12T20:05:37.088Z,14.82
2023-03-12T20:08:03.810Z,15.45
2023-03-12T20:10:32.187Z,15.77
2023-03-12T20:12:59.642Z,15.55
2023-03-12T20:15:32.114Z,13.48
2023-03-12T20:17:58.637Z,13.88
2023-03-12T20:20:25.693Z,14.23
2023-03-12T20:22:54.057Z,13.75
2023-03-12T20:25:28.496Z,14.15
2023-03-12T20:27:56.631Z,14.10
2023-03-12T20:30:23.273Z,14.38
2023-03-12T20:32:49.738Z,16.35
2023-03-12T20:35:18.432Z,18.00
2023-03-12T20:37:46.113Z,16.27
2023-03-12T20:40:13.800Z,16.73
2023-03-12T20:42:41.565Z,15.77
2023-03-12T20:45:10.559Z,15.00
2023-03-12T20:47:40.078Z,16.05
2023-03-12T20:50:07.736Z,15.15
2023-03-12T20:52:34.288Z,14.05
2023-03-12T20:55:00.798Z,14.80
2023-03-12T20:57:27.332Z,13.40
2023-03-12T20:59:53.732Z,15.27
2023-03-12T21:02:20.179Z,15.32
2023-03-12T21:04:46.782Z,16.17
2023-03-12T21:07:13.229Z,14.45
2023-03-12T21:09:39.764Z,15.65
2023-03-12T21:12:06.304Z,15.32
2023-03-12T21:14:32.762Z,14.93
2023-03-12T21:16:59.445Z,14.23
2023-03-12T21:19:29.536Z,15.05
2023-03-12T21:21:56.065Z,13.93
2023-03-12T21:24:23.596Z,15.45
2023-03-12T21:26:50.070Z,16.02
2023-03-12T21:29:16.478Z,15.70
2023-03-12T21:31:44.109Z,14.73
2023-03-12T21:34:10.622Z,15.85
2023-03-12T21:36:37.033Z,15.25
2023-03-12T21:39:03.666Z,15.75
2023-03-12T21:41:30.269Z,17.17
2023-03-12T21:44:01.227Z,14.30
2023-03-12T21:46:29.941Z,14.77
2023-03-12T21:48:57.741Z,14.70
2023-03-12T21:51:26.072Z,14.88
2023-03-12T21:53:57.715Z,14.60
2023-03-12T21:56:28.850Z,14.13
2023-03-12T21:58:57.182Z,15.82
2023-03-12T22:01:23.833Z,14.50
2023-03-12T22:03:50.389Z,15.98
2023-03-12T22:06:17.221Z,14.82
2023-03-12T22:08:44.706Z,16.05
2023-03-12T22:11:11.134Z,15.77
2023-03-12T22:13:37.558Z,14.27
2023-03-12T22:16:07.545Z,14.18
2023-03-12T22:18:38.193Z,17.05
2023-03-12T22:21:05.435Z,15.05
2023-03-12T22:23:32.184Z,15.93
2023-03-12T22:26:03.924Z,15.80
2023-03-12T22:28:31.482Z,14.73
2023-03-12T22:31:03.322Z,15.25
2023-03-12T22:33:30.085Z,15.60
2023-03-12T22:35:57.097Z,15.52
2023-03-12T22:38:24.899Z,16.05
2023-03-12T22:40:53.180Z,17.23
2023-03-12T22:43:21.573Z,14.13
2023-03-12T22:45:52.972Z,15.13
2023-03-12T22:48:19.411Z,14.98
2023-03-12T22:50:53.309Z,14.75
2023-03-12T22:53:19.783Z,14.77
2023-03-12T22:55:46.306Z,14.05
2023-03-12T22:58:13.130Z,14.55
2023-03-12T23:00:39.511Z,13.98
2023-03-12T23:03:05.921Z,13.88
2023-03-12T23:05:32.442Z,14.02
2023-03-12T23:07:58.811Z,14.55
2023-03-12T23:10:25.269Z,12.43
2023-03-12T23:12:51.715Z,14.13
2023-03-12T23:15:19.805Z,15.43
2023-03-12T23:17:46.288Z,15.05
2023-03-12T23:20:13.381Z,14.35
2023-03-12T23:22:39.794Z,14.57
2023-03-12T23:25:06.564Z,14.48
2023-03-12T23:27:32.972Z,15.13
2023-03-12T23:29:59.428Z,13.98
2023-03-12T23:32:25.897Z,14.30
2023-03-12T23:34:52.396Z,14.20
2023-03-12T23:37:18.916Z,13.40
2023-03-12T23:39:54.489Z,14.10
2023-03-12T23:42:21.489Z,13.13
2023-03-12T23:44:47.963Z,13.80
2023-03-12T23:47:14.454Z,14.50
2023-03-12T23:49:40.840Z,13.07
2023-03-12T23:52:07.339Z,12.95
2023-03-12T23:54:33.724Z,13.90
2023-03-12T23:57:00.204Z,14.20
2023-03-12T23:59:26.690Z,14.05
